Methuen, MA

1:31 PM EDT on August 01, 2015 (GMT -0400)
Mystic Pond | | Change Station
CLOSE
Current Station
Personal Weather Station
Location: Methuen, MA
Elevation: 131 ft
Nearby Weather Stations

Elev 131 ft 42.73 °N, 71.20 °W | Updated 1 minute ago

Mostly Cloudy
Mostly Cloudy
83.7 °F
Feels Like 86 °F
N
5.0
Wind Variable Wind from West
Gusts 13.0 mph

Today
High -- | Low -- °F
--% Chance of Precip.
Yesterday
High -- | Low -- °F
Precip. -- in
5:36 AM 8:05 PM
Full, 98% visible
Pressure 29.75 in
Visibility 10.0 miles
Clouds Mostly Cloudy 8500 ft
Heat Index 86 °F
Dew Point 65 °F
Humidity 54%
Rainfall 0.00 in
Snow Depth Not available.
UV 6 out of 12
Pollen 5.60 out of 12
Air Quality Not available.
Flu Activity Not available.
METAR KLWM 011654Z 25008KT 10SM BKN085 27/18 A2976 RMK AO2 RAB16E29 SLP075 P0000 T02670178

More Conditions Fewer Conditions

Pressure 29.75 in
Visibility 10.0 miles
Clouds Mostly Cloudy 8500 ft
Heat Index 86 °F
Dew Point 65 °F
Humidity 54%
Rainfall 0.00 in
Snow Depth Not available.
UV 6 out of 12
Pollen 5.60 out of 12
Air Quality Not available.
Flu Activity Not available.
METAR KLWM 011654Z 25008KT 10SM BKN085 27/18 A2976 RMK AO2 RAB16E29 SLP075 P0000 T02670178

More Conditions Fewer Conditions

10-Day Weather Forecast

×

Almanac

Astronomy

Aug. 01, 2015 Rise Set
Actual Time
Civil Twilight
Nautical Twilight
Astronomical Twilight
Moon
Length of Visible Light
Length of Day
Tomorrow will be .
, % of the Moon is Illuminated

Today's Extremes

State Highs State Lows

Community

WunderPhotos

Upload Photos

1,843,003 photos uploaded!

WunderBlogs® & News

Nearby

Air Quality

  Air Quality AQ Index Pollutant
Not available.

Snow Depth

Station Depth Elevation

Earthquake Activity

City Distance Mag. Time & Date
Minimum magnitude displayed is 2.5.

Coastal Water Temperatures

Place Temperature

Stations

Nearby Weather Stations

Station Location Temp. Windchill Dew Point Humidity Wind Precip. Elev Updated Type